sensor_id;sensor_type;location;lat;lon;timestamp;temperature;humidity
32217;DHT22;18709;51.140;4.088;2022-09-03T00:13:09;22.60;46.50
32217;DHT22;18709;51.140;4.088;2022-09-03T00:15:39;22.60;46.40
32217;DHT22;18709;51.140;4.088;2022-09-03T00:18:17;22.60;46.60
32217;DHT22;18709;51.140;4.088;2022-09-03T00:21:01;22.60;46.40
32217;DHT22;18709;51.140;4.088;2022-09-03T00:23:34;22.70;46.60
32217;DHT22;18709;51.140;4.088;2022-09-03T00:28:48;22.60;47.00
32217;DHT22;18709;51.140;4.088;2022-09-03T00:31:34;22.70;47.00
32217;DHT22;18709;51.140;4.088;2022-09-03T00:36:44;22.80;46.40
32217;DHT22;18709;51.140;4.088;2022-09-03T00:39:15;22.80;46.20
32217;DHT22;18709;51.140;4.088;2022-09-03T00:42:08;22.80;46.30
32217;DHT22;18709;51.140;4.088;2022-09-03T00:45:13;22.90;46.40
32217;DHT22;18709;51.140;4.088;2022-09-03T00:48:05;22.90;46.30
32217;DHT22;18709;51.140;4.088;2022-09-03T00:53:33;22.80;46.50
32217;DHT22;18709;51.140;4.088;2022-09-03T01:04:59;22.80;47.10
32217;DHT22;18709;51.140;4.088;2022-09-03T01:07:46;22.70;47.30
32217;DHT22;18709;51.140;4.088;2022-09-03T01:18:28;22.90;46.50
32217;DHT22;18709;51.140;4.088;2022-09-03T01:37:47;22.80;46.20
32217;DHT22;18709;51.140;4.088;2022-09-03T01:40:36;22.70;46.40
32217;DHT22;18709;51.140;4.088;2022-09-03T01:45:55;22.60;46.70
32217;DHT22;18709;51.140;4.088;2022-09-03T02:02:09;22.40;47.20
32217;DHT22;18709;51.140;4.088;2022-09-03T02:07:22;22.30;47.40
32217;DHT22;18709;51.140;4.088;2022-09-03T02:09:48;22.30;47.40
32217;DHT22;18709;51.140;4.088;2022-09-03T02:12:15;22.30;47.50
32217;DHT22;18709;51.140;4.088;2022-09-03T02:14:43;22.20;47.50
32217;DHT22;18709;51.140;4.088;2022-09-03T02:17:09;22.20;47.60
32217;DHT22;18709;51.140;4.088;2022-09-03T02:19:36;22.20;47.70
32217;DHT22;18709;51.140;4.088;2022-09-03T02:22:03;22.20;47.60
32217;DHT22;18709;51.140;4.088;2022-09-03T02:24:29;22.20;47.80
32217;DHT22;18709;51.140;4.088;2022-09-03T02:26:55;22.20;47.80
32217;DHT22;18709;51.140;4.088;2022-09-03T02:29:21;22.20;48.00
32217;DHT22;18709;51.140;4.088;2022-09-03T02:31:47;22.20;48.20
32217;DHT22;18709;51.140;4.088;2022-09-03T02:34:13;22.10;48.10
32217;DHT22;18709;51.140;4.088;2022-09-03T02:36:43;22.20;48.20
32217;DHT22;18709;51.140;4.088;2022-09-03T02:39:11;22.20;48.20
32217;DHT22;18709;51.140;4.088;2022-09-03T02:41:36;22.20;48.80
32217;DHT22;18709;51.140;4.088;2022-09-03T02:46:38;22.20;48.30
32217;DHT22;18709;51.140;4.088;2022-09-03T02:49:04;22.20;48.30
32217;DHT22;18709;51.140;4.088;2022-09-03T02:51:34;22.10;48.60
32217;DHT22;18709;51.140;4.088;2022-09-03T02:54:00;22.10;48.80
32217;DHT22;18709;51.140;4.088;2022-09-03T02:56:26;22.10;49.20
32217;DHT22;18709;51.140;4.088;2022-09-03T02:58:53;22.00;49.00
32217;DHT22;18709;51.140;4.088;2022-09-03T03:01:19;22.00;48.90
32217;DHT22;18709;51.140;4.088;2022-09-03T03:03:45;22.10;49.10
32217;DHT22;18709;51.140;4.088;2022-09-03T03:06:11;22.10;49.10
32217;DHT22;18709;51.140;4.088;2022-09-03T03:08:39;22.10;49.20
32217;DHT22;18709;51.140;4.088;2022-09-03T03:11:04;22.10;49.20
32217;DHT22;18709;51.140;4.088;2022-09-03T03:13:32;22.10;49.10
32217;DHT22;18709;51.140;4.088;2022-09-03T03:16:02;22.00;48.90
32217;DHT22;18709;51.140;4.088;2022-09-03T03:18:30;22.10;48.90
32217;DHT22;18709;51.140;4.088;2022-09-03T03:20:56;22.00;49.00
32217;DHT22;18709;51.140;4.088;2022-09-03T03:23:22;22.00;49.20
32217;DHT22;18709;51.140;4.088;2022-09-03T03:25:48;22.00;49.30
32217;DHT22;18709;51.140;4.088;2022-09-03T03:28:14;22.00;49.30
32217;DHT22;18709;51.140;4.088;2022-09-03T03:30:40;22.00;49.40
32217;DHT22;18709;51.140;4.088;2022-09-03T03:33:10;22.00;49.50
32217;DHT22;18709;51.140;4.088;2022-09-03T03:35:36;21.90;49.50
32217;DHT22;18709;51.140;4.088;2022-09-03T03:38:02;21.90;49.80
32217;DHT22;18709;51.140;4.088;2022-09-03T03:40:28;21.90;49.90
32217;DHT22;18709;51.140;4.088;2022-09-03T03:42:56;21.90;50.00
32217;DHT22;18709;51.140;4.088;2022-09-03T03:45:21;21.80;49.90
32217;DHT22;18709;51.140;4.088;2022-09-03T03:47:47;21.90;50.10
32217;DHT22;18709;51.140;4.088;2022-09-03T03:50:13;21.80;50.30
32217;DHT22;18709;51.140;4.088;2022-09-03T03:52:38;21.80;50.10
32217;DHT22;18709;51.140;4.088;2022-09-03T03:55:05;21.80;50.10
32217;DHT22;18709;51.140;4.088;2022-09-03T03:57:31;21.80;50.10
32217;DHT22;18709;51.140;4.088;2022-09-03T03:59:56;21.80;50.30
32217;DHT22;18709;51.140;4.088;2022-09-03T04:02:22;21.80;50.60
32217;DHT22;18709;51.140;4.088;2022-09-03T04:04:48;21.80;50.70
32217;DHT22;18709;51.140;4.088;2022-09-03T04:07:14;21.70;51.20
32217;DHT22;18709;51.140;4.088;2022-09-03T04:09:39;21.70;51.10
32217;DHT22;18709;51.140;4.088;2022-09-03T04:12:05;21.80;51.00
32217;DHT22;18709;51.140;4.088;2022-09-03T04:14:34;21.80;51.10
32217;DHT22;18709;51.140;4.088;2022-09-03T04:17:00;21.80;51.10
32217;DHT22;18709;51.140;4.088;2022-09-03T04:19:27;21.80;51.80
32217;DHT22;18709;51.140;4.088;2022-09-03T04:21:54;21.80;51.90
32217;DHT22;18709;51.140;4.088;2022-09-03T04:24:21;21.80;52.10
32217;DHT22;18709;51.140;4.088;2022-09-03T04:26:46;21.70;52.10
32217;DHT22;18709;51.140;4.088;2022-09-03T04:29:15;21.70;52.40
32217;DHT22;18709;51.140;4.088;2022-09-03T04:31:40;21.70;52.50
32217;DHT22;18709;51.140;4.088;2022-09-03T04:34:26;21.60;52.60
32217;DHT22;18709;51.140;4.088;2022-09-03T04:36:51;21.70;52.60
32217;DHT22;18709;51.140;4.088;2022-09-03T04:39:18;21.60;53.00
32217;DHT22;18709;51.140;4.088;2022-09-03T04:41:44;21.60;53.40
32217;DHT22;18709;51.140;4.088;2022-09-03T04:44:10;21.60;54.00
32217;DHT22;18709;51.140;4.088;2022-09-03T04:46:36;21.60;54.40
32217;DHT22;18709;51.140;4.088;2022-09-03T04:49:02;21.50;54.60
32217;DHT22;18709;51.140;4.088;2022-09-03T04:51:28;21.50;54.60
32217;DHT22;18709;51.140;4.088;2022-09-03T04:53:56;21.50;54.90
32217;DHT22;18709;51.140;4.088;2022-09-03T04:56:24;21.50;55.30
32217;DHT22;18709;51.140;4.088;2022-09-03T04:59:08;21.40;55.70
32217;DHT22;18709;51.140;4.088;2022-09-03T05:01:36;21.40;56.10
32217;DHT22;18709;51.140;4.088;2022-09-03T05:04:02;21.40;56.20
32217;DHT22;18709;51.140;4.088;2022-09-03T05:06:29;21.40;56.30
32217;DHT22;18709;51.140;4.088;2022-09-03T05:08:56;21.40;56.20
32217;DHT22;18709;51.140;4.088;2022-09-03T05:11:23;21.40;56.60
32217;DHT22;18709;51.140;4.088;2022-09-03T05:13:51;21.40;57.30
32217;DHT22;18709;51.140;4.088;2022-09-03T05:16:18;21.40;57.90
32217;DHT22;18709;51.140;4.088;2022-09-03T05:18:44;21.40;58.60
32217;DHT22;18709;51.140;4.088;2022-09-03T05:21:12;21.30;58.40
32217;DHT22;18709;51.140;4.088;2022-09-03T05:23:41;21.30;58.50
32217;DHT22;18709;51.140;4.088;2022-09-03T05:26:12;21.20;58.40
32217;DHT22;18709;51.140;4.088;2022-09-03T05:28:40;21.20;58.70
32217;DHT22;18709;51.140;4.088;2022-09-03T05:31:11;21.20;58.40
32217;DHT22;18709;51.140;4.088;2022-09-03T05:33:39;21.30;58.40
32217;DHT22;18709;51.140;4.088;2022-09-03T05:36:09;21.30;58.40
32217;DHT22;18709;51.140;4.088;2022-09-03T05:38:35;21.40;58.40
32217;DHT22;18709;51.140;4.088;2022-09-03T05:41:03;21.40;58.30
32217;DHT22;18709;51.140;4.088;2022-09-03T05:43:30;21.40;58.00
32217;DHT22;18709;51.140;4.088;2022-09-03T05:46:00;21.40;58.10
32217;DHT22;18709;51.140;4.088;2022-09-03T05:48:27;21.50;58.70
32217;DHT22;18709;51.140;4.088;2022-09-03T05:51:09;21.50;58.20
32217;DHT22;18709;51.140;4.088;2022-09-03T05:53:37;21.60;58.00
32217;DHT22;18709;51.140;4.088;2022-09-03T05:56:05;21.50;58.00
32217;DHT22;18709;51.140;4.088;2022-09-03T05:58:33;21.60;58.00
32217;DHT22;18709;51.140;4.088;2022-09-03T06:00:59;21.70;57.90
32217;DHT22;18709;51.140;4.088;2022-09-03T06:03:25;21.60;57.60
32217;DHT22;18709;51.140;4.088;2022-09-03T06:05:52;21.70;57.60
32217;DHT22;18709;51.140;4.088;2022-09-03T06:08:19;21.70;57.60
32217;DHT22;18709;51.140;4.088;2022-09-03T06:10:45;21.70;57.60
32217;DHT22;18709;51.140;4.088;2022-09-03T06:13:11;21.70;58.00
32217;DHT22;18709;51.140;4.088;2022-09-03T06:15:37;21.70;58.20
32217;DHT22;18709;51.140;4.088;2022-09-03T06:18:04;21.70;58.10
32217;DHT22;18709;51.140;4.088;2022-09-03T06:20:30;21.80;58.50
32217;DHT22;18709;51.140;4.088;2022-09-03T06:22:57;21.80;58.10
32217;DHT22;18709;51.140;4.088;2022-09-03T06:25:23;21.90;58.10
32217;DHT22;18709;51.140;4.088;2022-09-03T06:27:49;21.90;58.20
32217;DHT22;18709;51.140;4.088;2022-09-03T06:30:15;21.80;58.30
32217;DHT22;18709;51.140;4.088;2022-09-03T06:32:46;21.90;59.20
32217;DHT22;18709;51.140;4.088;2022-09-03T06:35:15;21.90;59.70
32217;DHT22;18709;51.140;4.088;2022-09-03T06:37:42;21.90;60.60
32217;DHT22;18709;51.140;4.088;2022-09-03T06:40:09;22.00;60.30
32217;DHT22;18709;51.140;4.088;2022-09-03T06:42:39;22.10;60.20
32217;DHT22;18709;51.140;4.088;2022-09-03T06:45:09;22.00;59.90
32217;DHT22;18709;51.140;4.088;2022-09-03T06:47:35;22.10;60.00
32217;DHT22;18709;51.140;4.088;2022-09-03T06:50:01;22.10;60.60
32217;DHT22;18709;51.140;4.088;2022-09-03T06:52:27;22.00;60.90
32217;DHT22;18709;51.140;4.088;2022-09-03T06:54:53;22.00;61.40
32217;DHT22;18709;51.140;4.088;2022-09-03T06:57:19;22.00;61.80
32217;DHT22;18709;51.140;4.088;2022-09-03T06:59:44;22.00;61.80
32217;DHT22;18709;51.140;4.088;2022-09-03T07:02:10;22.00;61.10
32217;DHT22;18709;51.140;4.088;2022-09-03T07:04:36;22.00;61.50
32217;DHT22;18709;51.140;4.088;2022-09-03T07:07:02;21.90;62.70
32217;DHT22;18709;51.140;4.088;2022-09-03T07:09:27;21.90;63.10
32217;DHT22;18709;51.140;4.088;2022-09-03T07:11:54;21.90;63.10
32217;DHT22;18709;51.140;4.088;2022-09-03T07:14:20;21.80;63.10
32217;DHT22;18709;51.140;4.088;2022-09-03T07:16:48;21.80;63.70
32217;DHT22;18709;51.140;4.088;2022-09-03T07:19:14;21.80;63.50
32217;DHT22;18709;51.140;4.088;2022-09-03T07:21:41;21.80;63.30
32217;DHT22;18709;51.140;4.088;2022-09-03T07:24:07;21.90;63.00
32217;DHT22;18709;51.140;4.088;2022-09-03T07:26:35;21.90;62.30
32217;DHT22;18709;51.140;4.088;2022-09-03T07:29:03;22.00;62.20
32217;DHT22;18709;51.140;4.088;2022-09-03T07:31:31;22.00;62.00
32217;DHT22;18709;51.140;4.088;2022-09-03T07:34:06;22.00;62.10
32217;DHT22;18709;51.140;4.088;2022-09-03T07:36:37;22.00;62.10
32217;DHT22;18709;51.140;4.088;2022-09-03T07:39:04;22.10;61.80
32217;DHT22;18709;51.140;4.088;2022-09-03T07:41:30;22.10;61.50
32217;DHT22;18709;51.140;4.088;2022-09-03T07:43:58;22.20;61.40
32217;DHT22;18709;51.140;4.088;2022-09-03T07:46:26;22.30;61.60
32217;DHT22;18709;51.140;4.088;2022-09-03T07:48:53;22.30;61.00
32217;DHT22;18709;51.140;4.088;2022-09-03T07:51:22;22.40;60.80
32217;DHT22;18709;51.140;4.088;2022-09-03T07:53:52;22.60;60.50
32217;DHT22;18709;51.140;4.088;2022-09-03T07:56:18;22.60;60.20
32217;DHT22;18709;51.140;4.088;2022-09-03T07:58:44;22.70;60.30
32217;DHT22;18709;51.140;4.088;2022-09-03T08:01:14;22.80;60.10
32217;DHT22;18709;51.140;4.088;2022-09-03T08:03:46;22.90;60.20
32217;DHT22;18709;51.140;4.088;2022-09-03T08:06:13;23.00;60.80
32217;DHT22;18709;51.140;4.088;2022-09-03T08:08:40;23.00;60.80
32217;DHT22;18709;51.140;4.088;2022-09-03T08:11:11;23.10;59.90
32217;DHT22;18709;51.140;4.088;2022-09-03T08:16:05;23.40;60.00
32217;DHT22;18709;51.140;4.088;2022-09-03T08:18:32;23.50;59.00
32217;DHT22;18709;51.140;4.088;2022-09-03T08:21:03;23.70;58.60
32217;DHT22;18709;51.140;4.088;2022-09-03T08:23:28;23.90;58.10
32217;DHT22;18709;51.140;4.088;2022-09-03T08:25:58;24.10;57.80
32217;DHT22;18709;51.140;4.088;2022-09-03T08:28:25;24.10;57.40
32217;DHT22;18709;51.140;4.088;2022-09-03T08:30:50;24.20;57.50
32217;DHT22;18709;51.140;4.088;2022-09-03T08:33:16;24.30;57.70
32217;DHT22;18709;51.140;4.088;2022-09-03T08:38:31;24.40;58.00
32217;DHT22;18709;51.140;4.088;2022-09-03T08:41:15;24.40;58.10
32217;DHT22;18709;51.140;4.088;2022-09-03T08:44:06;24.40;58.30
32217;DHT22;18709;51.140;4.088;2022-09-03T08:52:26;24.40;61.70
32217;DHT22;18709;51.140;4.088;2022-09-03T08:55:07;25.00;60.40
32217;DHT22;18709;51.140;4.088;2022-09-03T08:57:42;25.50;58.50
32217;DHT22;18709;51.140;4.088;2022-09-03T09:00:10;25.80;57.50
32217;DHT22;18709;51.140;4.088;2022-09-03T09:03:03;26.10;57.30
32217;DHT22;18709;51.140;4.088;2022-09-03T09:08:33;26.90;55.20
32217;DHT22;18709;51.140;4.088;2022-09-03T09:11:06;27.00;54.40
32217;DHT22;18709;51.140;4.088;2022-09-03T09:13:45;27.10;54.20
32217;DHT22;18709;51.140;4.088;2022-09-03T09:23:46;27.10;53.40
32217;DHT22;18709;51.140;4.088;2022-09-03T09:26:17;27.20;53.60
32217;DHT22;18709;51.140;4.088;2022-09-03T09:28:54;27.10;53.60
32217;DHT22;18709;51.140;4.088;2022-09-03T09:31:22;27.30;53.80
32217;DHT22;18709;51.140;4.088;2022-09-03T09:33:48;27.40;53.50
32217;DHT22;18709;51.140;4.088;2022-09-03T09:36:17;27.70;53.60
32217;DHT22;18709;51.140;4.088;2022-09-03T09:38:44;28.10;53.20
32217;DHT22;18709;51.140;4.088;2022-09-03T09:41:19;28.40;52.70
32217;DHT22;18709;51.140;4.088;2022-09-03T09:43:46;28.70;52.30
32217;DHT22;18709;51.140;4.088;2022-09-03T09:46:20;28.80;52.30
32217;DHT22;18709;51.140;4.088;2022-09-03T09:48:55;28.90;52.20
32217;DHT22;18709;51.140;4.088;2022-09-03T09:51:27;29.10;52.30
32217;DHT22;18709;51.140;4.088;2022-09-03T09:54:13;29.50;52.10
32217;DHT22;18709;51.140;4.088;2022-09-03T09:56:43;29.80;51.80
32217;DHT22;18709;51.140;4.088;2022-09-03T09:59:10;30.00;51.20
32217;DHT22;18709;51.140;4.088;2022-09-03T10:01:38;30.20;51.00
32217;DHT22;18709;51.140;4.088;2022-09-03T10:06:39;31.20;50.30
32217;DHT22;18709;51.140;4.088;2022-09-03T10:09:26;31.70;48.60
32217;DHT22;18709;51.140;4.088;2022-09-03T10:17:43;32.60;46.80
32217;DHT22;18709;51.140;4.088;2022-09-03T10:26:15;32.30;46.90
32217;DHT22;18709;51.140;4.088;2022-09-03T10:28:47;32.30;46.80
32217;DHT22;18709;51.140;4.088;2022-09-03T10:50:25;32.90;45.10
32217;DHT22;18709;51.140;4.088;2022-09-03T10:55:48;33.30;45.20
32217;DHT22;18709;51.140;4.088;2022-09-03T11:03:47;34.50;43.20
32217;DHT22;18709;51.140;4.088;2022-09-03T11:06:28;34.70;42.10
32217;DHT22;18709;51.140;4.088;2022-09-03T11:09:05;35.10;41.90
32217;DHT22;18709;51.140;4.088;2022-09-03T11:14:46;36.50;39.70
32217;DHT22;18709;51.140;4.088;2022-09-03T11:17:23;36.70;39.20
32217;DHT22;18709;51.140;4.088;2022-09-03T11:19:55;36.80;39.10
32217;DHT22;18709;51.140;4.088;2022-09-03T11:22:23;36.90;39.30
32217;DHT22;18709;51.140;4.088;2022-09-03T11:24:54;37.10;39.20
32217;DHT22;18709;51.140;4.088;2022-09-03T11:30:08;38.20;38.30
32217;DHT22;18709;51.140;4.088;2022-09-03T11:32:57;38.60;37.30
32217;DHT22;18709;51.140;4.088;2022-09-03T11:38:05;39.20;37.50
32217;DHT22;18709;51.140;4.088;2022-09-03T11:40:35;39.60;37.20
32217;DHT22;18709;51.140;4.088;2022-09-03T11:45:38;40.20;36.40
32217;DHT22;18709;51.140;4.088;2022-09-03T11:48:32;40.30;36.30
32217;DHT22;18709;51.140;4.088;2022-09-03T11:50:59;40.30;36.20
32217;DHT22;18709;51.140;4.088;2022-09-03T11:53:31;40.20;35.80
32217;DHT22;18709;51.140;4.088;2022-09-03T11:58:32;39.90;36.20
32217;DHT22;18709;51.140;4.088;2022-09-03T12:01:01;39.90;37.00
32217;DHT22;18709;51.140;4.088;2022-09-03T12:11:23;39.80;36.00
32217;DHT22;18709;51.140;4.088;2022-09-03T12:14:19;39.90;36.20
32217;DHT22;18709;51.140;4.088;2022-09-03T12:19:42;39.00;36.50
32217;DHT22;18709;51.140;4.088;2022-09-03T12:22:14;38.60;37.10
32217;DHT22;18709;51.140;4.088;2022-09-03T12:24:41;38.60;38.00
32217;DHT22;18709;51.140;4.088;2022-09-03T12:27:09;38.90;37.20
32217;DHT22;18709;51.140;4.088;2022-09-03T12:29:37;39.30;36.60
32217;DHT22;18709;51.140;4.088;2022-09-03T12:32:07;39.50;35.70
32217;DHT22;18709;51.140;4.088;2022-09-03T12:34:33;39.80;35.40
32217;DHT22;18709;51.140;4.088;2022-09-03T12:36:59;40.20;34.60
32217;DHT22;18709;51.140;4.088;2022-09-03T12:39:26;40.70;34.40
32217;DHT22;18709;51.140;4.088;2022-09-03T12:42:06;40.90;33.60
32217;DHT22;18709;51.140;4.088;2022-09-03T12:47:05;40.40;33.80
32217;DHT22;18709;51.140;4.088;2022-09-03T12:49:40;40.50;34.30
32217;DHT22;18709;51.140;4.088;2022-09-03T12:57:39;40.50;34.10
32217;DHT22;18709;51.140;4.088;2022-09-03T13:00:08;40.70;33.40
32217;DHT22;18709;51.140;4.088;2022-09-03T13:05:12;40.00;33.50
32217;DHT22;18709;51.140;4.088;2022-09-03T13:07:39;39.80;33.60
32217;DHT22;18709;51.140;4.088;2022-09-03T13:10:22;39.90;34.00
32217;DHT22;18709;51.140;4.088;2022-09-03T13:12:49;39.90;34.20
32217;DHT22;18709;51.140;4.088;2022-09-03T13:15:21;39.50;34.20
32217;DHT22;18709;51.140;4.088;2022-09-03T13:18:24;39.60;34.30
32217;DHT22;18709;51.140;4.088;2022-09-03T13:26:14;39.40;34.80
32217;DHT22;18709;51.140;4.088;2022-09-03T13:29:26;38.80;35.40
32217;DHT22;18709;51.140;4.088;2022-09-03T13:31:54;38.20;35.90
32217;DHT22;18709;51.140;4.088;2022-09-03T13:37:37;38.60;36.10
32217;DHT22;18709;51.140;4.088;2022-09-03T13:40:17;38.40;35.90
32217;DHT22;18709;51.140;4.088;2022-09-03T13:45:42;39.00;35.30
32217;DHT22;18709;51.140;4.088;2022-09-03T13:48:15;39.20;35.40
32217;DHT22;18709;51.140;4.088;2022-09-03T13:51:12;39.70;35.00
32217;DHT22;18709;51.140;4.088;2022-09-03T13:56:53;40.90;33.70
32217;DHT22;18709;51.140;4.088;2022-09-03T13:59:39;41.50;33.20
32217;DHT22;18709;51.140;4.088;2022-09-03T14:02:36;41.60;32.30
32217;DHT22;18709;51.140;4.088;2022-09-03T14:05:15;41.90;32.60
32217;DHT22;18709;51.140;4.088;2022-09-03T14:07:51;42.10;32.20
32217;DHT22;18709;51.140;4.088;2022-09-03T14:21:00;42.40;31.30
32217;DHT22;18709;51.140;4.088;2022-09-03T14:24:06;42.30;31.10
32217;DHT22;18709;51.140;4.088;2022-09-03T14:26:36;41.80;31.40
32217;DHT22;18709;51.140;4.088;2022-09-03T14:31:54;40.10;32.90
32217;DHT22;18709;51.140;4.088;2022-09-03T14:37:08;39.00;34.10
32217;DHT22;18709;51.140;4.088;2022-09-03T14:39:52;38.70;34.60
32217;DHT22;18709;51.140;4.088;2022-09-03T14:42:54;38.40;34.90
32217;DHT22;18709;51.140;4.088;2022-09-03T14:51:57;37.10;36.40
32217;DHT22;18709;51.140;4.088;2022-09-03T15:12:51;36.00;38.10
32217;DHT22;18709;51.140;4.088;2022-09-03T15:15:25;35.90;38.20
32217;DHT22;18709;51.140;4.088;2022-09-03T15:20:52;35.50;38.70
32217;DHT22;18709;51.140;4.088;2022-09-03T15:31:32;34.50;40.20
32217;DHT22;18709;51.140;4.088;2022-09-03T15:34:17;34.50;40.90
32217;DHT22;18709;51.140;4.088;2022-09-03T15:36:52;34.70;41.20
32217;DHT22;18709;51.140;4.088;2022-09-03T15:39:36;34.40;41.50
32217;DHT22;18709;51.140;4.088;2022-09-03T15:42:10;34.20;41.30
32217;DHT22;18709;51.140;4.088;2022-09-03T15:44:47;33.90;41.20
32217;DHT22;18709;51.140;4.088;2022-09-03T15:53:44;33.90;41.90
32217;DHT22;18709;51.140;4.088;2022-09-03T15:56:05;33.90;41.80
32217;DHT22;18709;51.140;4.088;2022-09-03T16:02:29;33.80;41.50
32217;DHT22;18709;51.140;4.088;2022-09-03T16:18:52;33.80;39.10
32217;DHT22;18709;51.140;4.088;2022-09-03T16:21:45;33.60;38.80
32217;DHT22;18709;51.140;4.088;2022-09-03T16:24:42;33.40;38.90
32217;DHT22;18709;51.140;4.088;2022-09-03T16:27:24;33.20;39.00
32217;DHT22;18709;51.140;4.088;2022-09-03T16:29:56;33.00;39.20
32217;DHT22;18709;51.140;4.088;2022-09-03T16:38:22;32.50;39.70
32217;DHT22;18709;51.140;4.088;2022-09-03T16:49:02;32.10;40.70
32217;DHT22;18709;51.140;4.088;2022-09-03T17:13:09;31.30;44.40
32217;DHT22;18709;51.140;4.088;2022-09-03T17:15:48;31.20;44.10
32217;DHT22;18709;51.140;4.088;2022-09-03T17:32:45;30.40;46.10
32217;DHT22;18709;51.140;4.088;2022-09-03T17:35:35;30.30;46.90
32217;DHT22;18709;51.140;4.088;2022-09-03T17:43:59;30.00;48.30
32217;DHT22;18709;51.140;4.088;2022-09-03T17:48:58;29.70;48.80
32217;DHT22;18709;51.140;4.088;2022-09-03T17:51:58;29.60;49.00
32217;DHT22;18709;51.140;4.088;2022-09-03T18:02:44;29.40;50.00
32217;DHT22;18709;51.140;4.088;2022-09-03T18:05:28;29.30;49.80
32217;DHT22;18709;51.140;4.088;2022-09-03T18:08:05;29.30;50.60
32217;DHT22;18709;51.140;4.088;2022-09-03T18:16:34;29.10;51.30
32217;DHT22;18709;51.140;4.088;2022-09-03T18:19:01;29.00;51.60
32217;DHT22;18709;51.140;4.088;2022-09-03T18:21:32;28.90;52.70
32217;DHT22;18709;51.140;4.088;2022-09-03T18:27:35;28.70;51.90
32217;DHT22;18709;51.140;4.088;2022-09-03T18:30:23;28.60;52.60
32217;DHT22;18709;51.140;4.088;2022-09-03T18:33:07;28.40;52.20
32217;DHT22;18709;51.140;4.088;2022-09-03T18:35:53;28.30;52.40
32217;DHT22;18709;51.140;4.088;2022-09-03T18:38:38;28.30;52.50
32217;DHT22;18709;51.140;4.088;2022-09-03T18:41:32;28.20;52.90
32217;DHT22;18709;51.140;4.088;2022-09-03T18:44:37;28.10;53.90
32217;DHT22;18709;51.140;4.088;2022-09-03T18:50:36;27.90;54.00
32217;DHT22;18709;51.140;4.088;2022-09-03T18:53:34;27.80;54.50
32217;DHT22;18709;51.140;4.088;2022-09-03T18:56:28;27.80;54.80
32217;DHT22;18709;51.140;4.088;2022-09-03T19:09:50;27.60;54.80
32217;DHT22;18709;51.140;4.088;2022-09-03T19:12:40;27.50;55.50
32217;DHT22;18709;51.140;4.088;2022-09-03T19:15:36;27.40;55.90
32217;DHT22;18709;51.140;4.088;2022-09-03T19:18:47;27.30;56.40
32217;DHT22;18709;51.140;4.088;2022-09-03T19:21:39;27.20;56.70
32217;DHT22;18709;51.140;4.088;2022-09-03T19:24:27;27.10;56.90
32217;DHT22;18709;51.140;4.088;2022-09-03T19:27:36;27.00;57.00
32217;DHT22;18709;51.140;4.088;2022-09-03T19:36:41;26.80;58.10
32217;DHT22;18709;51.140;4.088;2022-09-03T19:42:58;26.60;58.50
32217;DHT22;18709;51.140;4.088;2022-09-03T19:46:11;26.50;58.90
32217;DHT22;18709;51.140;4.088;2022-09-03T19:55:10;26.40;59.30
32217;DHT22;18709;51.140;4.088;2022-09-03T19:57:58;26.40;59.40
32217;DHT22;18709;51.140;4.088;2022-09-03T20:00:44;26.40;59.40
32217;DHT22;18709;51.140;4.088;2022-09-03T20:03:30;26.40;59.80
32217;DHT22;18709;51.140;4.088;2022-09-03T20:06:14;26.30;60.00
32217;DHT22;18709;51.140;4.088;2022-09-03T20:09:04;26.30;60.10
32217;DHT22;18709;51.140;4.088;2022-09-03T20:11:49;26.20;60.30
32217;DHT22;18709;51.140;4.088;2022-09-03T20:14:16;26.20;60.40
32217;DHT22;18709;51.140;4.088;2022-09-03T20:17:50;26.10;60.70
32217;DHT22;18709;51.140;4.088;2022-09-03T20:36:55;25.90;61.50
32217;DHT22;18709;51.140;4.088;2022-09-03T20:45:10;25.90;61.90
32217;DHT22;18709;51.140;4.088;2022-09-03T20:59:53;25.70;63.20
32217;DHT22;18709;51.140;4.088;2022-09-03T21:10:31;25.60;65.10
32217;DHT22;18709;51.140;4.088;2022-09-03T21:13:26;25.60;65.40
32217;DHT22;18709;51.140;4.088;2022-09-03T21:16:01;25.60;65.60
32217;DHT22;18709;51.140;4.088;2022-09-03T21:21:39;25.50;65.80
32217;DHT22;18709;51.140;4.088;2022-09-03T21:24:23;25.50;66.20
32217;DHT22;18709;51.140;4.088;2022-09-03T21:26:57;25.50;66.70
32217;DHT22;18709;51.140;4.088;2022-09-03T21:29:31;25.40;66.70
32217;DHT22;18709;51.140;4.088;2022-09-03T21:32:24;25.30;66.80
32217;DHT22;18709;51.140;4.088;2022-09-03T21:37:40;25.40;66.60
32217;DHT22;18709;51.140;4.088;2022-09-03T21:40:10;25.40;66.70
32217;DHT22;18709;51.140;4.088;2022-09-03T21:42:56;25.30;66.90
32217;DHT22;18709;51.140;4.088;2022-09-03T21:45:52;25.30;66.80
32217;DHT22;18709;51.140;4.088;2022-09-03T21:48:25;25.30;67.00
32217;DHT22;18709;51.140;4.088;2022-09-03T21:50:59;25.20;67.10
32217;DHT22;18709;51.140;4.088;2022-09-03T21:53:44;25.20;67.30
32217;DHT22;18709;51.140;4.088;2022-09-03T21:56:34;25.20;67.20
32217;DHT22;18709;51.140;4.088;2022-09-03T22:04:25;25.00;67.50
32217;DHT22;18709;51.140;4.088;2022-09-03T22:07:16;24.90;67.60
32217;DHT22;18709;51.140;4.088;2022-09-03T22:09:54;24.90;67.60
32217;DHT22;18709;51.140;4.088;2022-09-03T22:15:11;24.80;68.00
32217;DHT22;18709;51.140;4.088;2022-09-03T22:17:44;24.70;68.40
32217;DHT22;18709;51.140;4.088;2022-09-03T22:20:14;24.70;68.60
32217;DHT22;18709;51.140;4.088;2022-09-03T22:22:55;24.70;68.70
32217;DHT22;18709;51.140;4.088;2022-09-03T22:25:42;24.60;68.70
32217;DHT22;18709;51.140;4.088;2022-09-03T22:28:32;24.50;68.90
32217;DHT22;18709;51.140;4.088;2022-09-03T22:31:09;24.50;69.30
32217;DHT22;18709;51.140;4.088;2022-09-03T22:33:53;24.40;69.50
32217;DHT22;18709;51.140;4.088;2022-09-03T22:36:28;24.40;69.70
32217;DHT22;18709;51.140;4.088;2022-09-03T22:50:24;24.10;70.40
32217;DHT22;18709;51.140;4.088;2022-09-03T22:53:16;24.00;70.60
32217;DHT22;18709;51.140;4.088;2022-09-03T22:56:15;24.00;70.90
32217;DHT22;18709;51.140;4.088;2022-09-03T23:01:55;23.90;71.30
32217;DHT22;18709;51.140;4.088;2022-09-03T23:04:33;23.80;71.50
32217;DHT22;18709;51.140;4.088;2022-09-03T23:07:24;23.70;71.70
32217;DHT22;18709;51.140;4.088;2022-09-03T23:10:14;23.70;71.90
32217;DHT22;18709;51.140;4.088;2022-09-03T23:12:47;23.60;71.70
32217;DHT22;18709;51.140;4.088;2022-09-03T23:15:24;23.60;71.80
32217;DHT22;18709;51.140;4.088;2022-09-03T23:20:31;23.60;71.90
32217;DHT22;18709;51.140;4.088;2022-09-03T23:23:20;23.50;72.00
32217;DHT22;18709;51.140;4.088;2022-09-03T23:28:41;23.50;72.30
32217;DHT22;18709;51.140;4.088;2022-09-03T23:33:47;23.30;72.50
32217;DHT22;18709;51.140;4.088;2022-09-03T23:39:41;23.30;72.60
32217;DHT22;18709;51.140;4.088;2022-09-03T23:54:15;23.10;72.40
